createdAt,value
2022-09-23T00:01:34.929Z,0.30
2022-09-23T00:04:01.389Z,0.32
2022-09-23T00:06:30.493Z,0.40
2022-09-23T00:08:56.789Z,0.30
2022-09-23T00:11:24.321Z,0.40
2022-09-23T00:13:52.614Z,0.40
2022-09-23T00:16:24.235Z,0.30
2022-09-23T00:18:50.799Z,0.30
2022-09-23T00:21:18.211Z,0.30
2022-09-23T00:23:44.546Z,0.22
2022-09-23T00:26:12.438Z,0.30
2022-09-23T00:28:38.872Z,0.25
2022-09-23T00:31:06.473Z,0.20
2022-09-23T00:33:32.914Z,0.20
2022-09-23T00:36:03.897Z,0.32
2022-09-23T00:38:30.300Z,0.30
2022-09-23T00:40:58.236Z,0.20
2022-09-23T00:43:38.331Z,0.22
2022-09-23T00:46:06.354Z,0.20
2022-09-23T00:48:32.699Z,0.10
2022-09-23T00:50:59.138Z,0.20
2022-09-23T00:53:26.675Z,0.20
2022-09-23T00:55:57.408Z,0.20
2022-09-23T00:58:25.406Z,0.20
2022-09-23T01:00:51.899Z,0.10
2022-09-23T01:03:19.640Z,0.20
2022-09-23T01:05:47.052Z,0.20
2022-09-23T01:08:14.514Z,0.20
2022-09-23T01:10:59.072Z,0.28
2022-09-23T01:13:28.659Z,0.40
2022-09-23T01:16:10.275Z,0.40
2022-09-23T01:18:48.813Z,0.40
2022-09-23T01:21:19.538Z,0.50
2022-09-23T01:24:02.429Z,0.60
2022-09-23T01:26:32.112Z,0.40
2022-09-23T01:29:02.256Z,0.38
2022-09-23T01:31:34.799Z,0.40
2022-09-23T01:34:16.264Z,0.40
2022-09-23T01:36:49.436Z,0.30
2022-09-23T01:39:18.738Z,0.20
2022-09-23T01:42:11.327Z,0.30
2022-09-23T01:44:44.529Z,0.20
2022-09-23T01:47:14.530Z,0.35
2022-09-23T01:49:50.950Z,0.30
2022-09-23T01:52:37.538Z,0.30
2022-09-23T01:55:18.230Z,0.30
2022-09-23T01:57:48.813Z,0.30
2022-09-23T02:00:16.461Z,0.35
2022-09-23T02:02:58.914Z,0.20
2022-09-23T02:05:31.045Z,0.30
2022-09-23T02:10:27.406Z,0.20
2022-09-23T02:12:57.228Z,0.20
2022-09-23T02:15:25.244Z,0.30
2022-09-23T02:17:58.913Z,0.35
2022-09-23T02:20:28.527Z,0.20
2022-09-23T02:23:07.725Z,0.30
2022-09-23T02:25:39.643Z,0.22
2022-09-23T02:28:11.828Z,0.20
2022-09-23T02:30:43.658Z,0.20
2022-09-23T02:33:24.416Z,0.22
2022-09-23T02:36:08.796Z,0.30
2022-09-23T02:38:38.683Z,0.43
2022-09-23T02:41:10.067Z,0.50
2022-09-23T02:43:36.386Z,0.40
2022-09-23T02:46:03.858Z,0.47
2022-09-23T02:48:40.623Z,0.68
2022-09-23T02:51:07.416Z,0.60
2022-09-23T02:53:34.609Z,0.50
2022-09-23T02:56:01.237Z,0.50
2022-09-23T02:58:27.953Z,0.40
2022-09-23T03:01:07.010Z,0.60
2022-09-23T03:03:40.807Z,0.40
2022-09-23T03:06:19.013Z,0.50
2022-09-23T03:08:51.188Z,0.50
2022-09-23T03:11:17.836Z,0.50
2022-09-23T03:13:54.216Z,0.47
2022-09-23T03:16:32.773Z,0.40
2022-09-23T03:19:06.016Z,0.40
2022-09-23T03:21:34.433Z,0.45
2022-09-23T03:24:02.783Z,0.32
2022-09-23T03:26:32.169Z,0.20
2022-09-23T03:28:58.836Z,0.30
2022-09-23T03:31:25.278Z,0.20
2022-09-23T03:33:54.664Z,0.30
2022-09-23T03:36:44.115Z,0.50
2022-09-23T03:39:12.617Z,0.50
2022-09-23T03:41:43.748Z,0.40
2022-09-23T03:44:10.536Z,0.40
2022-09-23T03:46:37.216Z,0.40
2022-09-23T03:49:17.445Z,0.30
2022-09-23T03:51:44.824Z,0.30
2022-09-23T03:54:11.332Z,0.30
2022-09-23T03:56:37.762Z,0.20
2022-09-23T03:59:04.179Z,0.38
2022-09-23T04:01:30.464Z,0.55
2022-09-23T04:03:56.757Z,0.30
2022-09-23T04:06:23.289Z,0.20
2022-09-23T04:08:49.574Z,0.30
2022-09-23T04:11:15.990Z,0.30
2022-09-23T04:13:42.333Z,0.30
2022-09-23T04:16:08.687Z,0.30
2022-09-23T04:18:35.350Z,0.22
2022-09-23T04:21:01.785Z,0.32
2022-09-23T04:23:28.396Z,0.43
2022-09-23T04:25:54.816Z,0.30
2022-09-23T04:28:21.502Z,0.30
2022-09-23T04:30:48.822Z,0.20
2022-09-23T04:33:16.047Z,0.40
2022-09-23T04:35:45.473Z,0.30
2022-09-23T04:38:12.413Z,0.30
2022-09-23T04:40:39.247Z,0.20
2022-09-23T04:43:05.716Z,0.30
2022-09-23T04:45:31.997Z,0.20
2022-09-23T04:47:58.469Z,0.40
2022-09-23T04:50:26.151Z,0.20
2022-09-23T04:52:52.867Z,0.30
2022-09-23T04:55:19.237Z,0.40
2022-09-23T04:57:45.596Z,0.38
2022-09-23T05:00:12.566Z,0.32
2022-09-23T05:02:42.809Z,0.20
2022-09-23T05:05:09.217Z,0.20
2022-09-23T05:07:36.130Z,0.30
2022-09-23T05:10:02.414Z,0.20
2022-09-23T05:12:28.920Z,0.30
2022-09-23T05:14:55.871Z,0.20
2022-09-23T05:17:22.305Z,0.30
2022-09-23T05:19:48.721Z,0.55
2022-09-23T05:22:15.002Z,0.60
2022-09-23T05:24:41.340Z,0.80
2022-09-23T05:27:07.817Z,1.00
2022-09-23T05:29:34.844Z,0.90
2022-09-23T05:32:04.193Z,1.10
2022-09-23T05:34:30.634Z,1.27
2022-09-23T05:36:58.428Z,0.82
2022-09-23T05:39:24.770Z,0.63
2022-09-23T05:41:51.214Z,0.52
2022-09-23T05:44:17.480Z,0.50
2022-09-23T05:46:43.875Z,0.50
2022-09-23T05:49:10.547Z,0.40
2022-09-23T05:51:36.904Z,0.40
2022-09-23T05:54:04.173Z,0.30
2022-09-23T05:56:31.581Z,0.32
2022-09-23T05:58:58.800Z,0.30
2022-09-23T06:01:26.626Z,0.20
2022-09-23T06:03:53.749Z,0.30
2022-09-23T06:06:21.100Z,0.45
2022-09-23T06:08:47.781Z,0.50
2022-09-23T06:11:14.483Z,0.80
2022-09-23T06:13:41.245Z,0.50
2022-09-23T06:16:10.014Z,0.40
2022-09-23T06:18:38.459Z,0.40
2022-09-23T06:21:05.104Z,0.28
2022-09-23T06:23:31.816Z,0.22
2022-09-23T06:26:01.658Z,0.20
2022-09-23T06:28:32.360Z,0.20
2022-09-23T06:31:08.540Z,0.20
2022-09-23T06:33:37.527Z,0.20
2022-09-23T06:36:05.832Z,0.40
2022-09-23T06:38:34.217Z,0.30
2022-09-23T06:41:01.968Z,0.20
2022-09-23T06:43:28.456Z,0.25
2022-09-23T06:45:54.831Z,0.30
2022-09-23T06:48:21.384Z,0.88
2022-09-23T06:50:49.418Z,0.82
2022-09-23T06:53:16.439Z,0.70
2022-09-23T06:55:43.145Z,0.52
2022-09-23T06:58:09.650Z,0.50
2022-09-23T07:00:36.577Z,0.40
2022-09-23T07:03:07.142Z,0.40
2022-09-23T07:05:33.771Z,0.60
2022-09-23T07:08:01.200Z,0.50
2022-09-23T07:10:31.019Z,0.60
2022-09-23T07:13:00.856Z,0.77
2022-09-23T07:15:27.503Z,0.65
2022-09-23T07:17:53.920Z,0.70
2022-09-23T07:20:20.203Z,1.67
2022-09-23T07:22:50.224Z,2.63
2022-09-23T07:25:16.808Z,1.50
2022-09-23T07:27:43.221Z,2.20
2022-09-23T07:30:19.898Z,1.58
2022-09-23T07:32:49.624Z,1.60
2022-09-23T07:35:16.949Z,1.70
2022-09-23T07:37:43.760Z,1.95
2022-09-23T07:40:10.150Z,1.92
2022-09-23T07:42:36.530Z,1.25
2022-09-23T07:45:02.854Z,1.10
2022-09-23T07:47:29.780Z,0.80
2022-09-23T07:49:56.095Z,0.80
2022-09-23T07:52:22.411Z,1.50
2022-09-23T07:54:48.751Z,1.10
2022-09-23T07:57:15.270Z,1.50
2022-09-23T07:59:43.120Z,0.90
2022-09-23T08:02:10.440Z,1.30
2022-09-23T08:04:36.756Z,1.23
2022-09-23T08:07:04.766Z,1.02
2022-09-23T08:09:32.825Z,2.15
2022-09-23T08:11:59.319Z,2.30
2022-09-23T08:14:26.010Z,1.80
2022-09-23T08:16:52.546Z,1.83
2022-09-23T08:19:18.970Z,1.33
2022-09-23T08:21:47.476Z,1.13
2022-09-23T08:24:16.090Z,0.75
2022-09-23T08:26:42.933Z,0.60
2022-09-23T08:29:11.972Z,0.65
2022-09-23T08:31:38.337Z,0.50
2022-09-23T08:34:06.342Z,0.60
2022-09-23T08:36:32.672Z,2.40
2022-09-23T08:38:59.007Z,1.35
2022-09-23T08:41:40.551Z,1.20
2022-09-23T08:44:26.665Z,1.27
2022-09-23T08:46:57.275Z,1.30
2022-09-23T08:49:27.652Z,1.90
2022-09-23T08:51:54.883Z,1.55
2022-09-23T08:54:21.766Z,1.20
2022-09-23T08:56:51.219Z,1.70
2022-09-23T08:59:28.807Z,1.30
2022-09-23T09:01:59.773Z,1.10
2022-09-23T09:04:28.007Z,1.53
2022-09-23T09:07:12.335Z,2.35
2022-09-23T09:09:53.033Z,1.30
2022-09-23T09:12:41.020Z,1.25
2022-09-23T09:15:15.080Z,2.28
2022-09-23T09:18:01.326Z,2.60
2022-09-23T09:20:41.148Z,2.00
2022-09-23T09:23:16.715Z,2.00
2022-09-23T09:25:44.934Z,1.23
2022-09-23T09:28:15.130Z,1.23
2022-09-23T09:30:44.119Z,1.10
2022-09-23T09:33:15.427Z,2.00
2022-09-23T09:35:41.719Z,2.40
2022-09-23T09:38:08.250Z,1.92
2022-09-23T09:40:35.141Z,1.38
2022-09-23T09:43:04.612Z,1.20
2022-09-23T09:45:41.589Z,2.00
2022-09-23T09:48:17.636Z,1.30
2022-09-23T09:50:52.166Z,1.30
2022-09-23T09:53:25.810Z,1.92
2022-09-23T09:56:05.985Z,1.58
2022-09-23T09:58:43.589Z,1.10
2022-09-23T10:01:28.618Z,0.90
2022-09-23T10:03:59.473Z,1.92
2022-09-23T10:06:30.526Z,2.13
2022-09-23T10:09:15.057Z,1.80
2022-09-23T10:11:41.788Z,1.73
2022-09-23T10:14:18.274Z,1.60
2022-09-23T10:16:45.983Z,1.25
2022-09-23T10:19:25.870Z,1.80
2022-09-23T10:21:59.951Z,2.00
2022-09-23T10:24:29.840Z,1.65
2022-09-23T10:26:56.124Z,1.83
2022-09-23T10:29:24.352Z,2.10
2022-09-23T10:32:10.634Z,2.30
2022-09-23T10:34:42.510Z,1.60
2022-09-23T10:37:14.578Z,1.52
2022-09-23T10:39:59.627Z,1.60
2022-09-23T10:43:00.591Z,1.75
2022-09-23T10:45:48.305Z,1.70
2022-09-23T10:48:14.594Z,1.85
2022-09-23T10:50:48.601Z,1.80
2022-09-23T10:53:15.264Z,1.60
2022-09-23T10:55:48.525Z,1.83
2022-09-23T10:58:27.328Z,1.95
2022-09-23T11:00:53.600Z,1.48
2022-09-23T11:03:39.383Z,1.30
2022-09-23T11:06:11.691Z,1.52
2022-09-23T11:08:57.450Z,1.60
2022-09-23T11:11:23.709Z,1.88
2022-09-23T11:14:00.236Z,1.42
2022-09-23T11:16:29.592Z,1.30
2022-09-23T11:18:55.982Z,2.08
2022-09-23T11:21:41.038Z,2.00
2022-09-23T11:24:24.264Z,1.13
2022-09-23T11:26:59.835Z,0.95
2022-09-23T11:29:35.461Z,1.48
2022-09-23T11:32:40.582Z,1.80
2022-09-23T11:35:25.616Z,1.30
2022-09-23T11:37:57.941Z,1.30
2022-09-23T11:40:30.552Z,1.10
2022-09-23T11:42:59.512Z,1.00
2022-09-23T11:45:30.319Z,1.00
2022-09-23T11:47:59.417Z,1.25
2022-09-23T11:50:36.603Z,0.98
2022-09-23T11:53:05.722Z,0.75
2022-09-23T11:55:34.740Z,0.70
2022-09-23T11:58:08.076Z,0.40
2022-09-23T12:00:39.098Z,1.40
2022-09-23T12:03:16.149Z,3.50
2022-09-23T12:05:45.797Z,1.70
2022-09-23T12:08:12.189Z,1.38
2022-09-23T12:10:43.902Z,1.40
2022-09-23T12:13:20.994Z,0.95
2022-09-23T12:15:50.639Z,1.15
2022-09-23T12:18:26.210Z,1.00
2022-09-23T12:21:22.430Z,0.50
2022-09-23T12:23:58.414Z,0.40
2022-09-23T12:26:25.540Z,1.00
2022-09-23T12:28:53.712Z,1.30
2022-09-23T12:31:21.784Z,1.23
2022-09-23T12:33:52.817Z,1.10
2022-09-23T12:36:34.755Z,1.30
2022-09-23T12:39:01.155Z,1.20
2022-09-23T12:41:37.502Z,1.20
2022-09-23T12:44:13.893Z,1.25
2022-09-23T12:46:43.953Z,0.80
2022-09-23T12:49:23.516Z,0.60
2022-09-23T12:52:08.624Z,0.47
2022-09-23T12:54:34.945Z,0.35
2022-09-23T12:57:01.780Z,0.30
2022-09-23T12:59:29.150Z,0.30
2022-09-23T13:01:56.089Z,0.30
2022-09-23T13:04:47.330Z,0.20
2022-09-23T13:07:33.938Z,0.20
2022-09-23T13:10:23.935Z,0.30
2022-09-23T13:12:51.313Z,0.40
2022-09-23T13:15:23.567Z,0.30
2022-09-23T13:17:49.883Z,0.10
2022-09-23T13:20:19.366Z,0.20
2022-09-23T13:22:48.691Z,0.30
2022-09-23T13:25:20.573Z,0.20
2022-09-23T13:27:49.687Z,0.10
2022-09-23T13:30:16.262Z,0.20
2022-09-23T13:32:48.577Z,0.20
2022-09-23T13:35:32.180Z,0.20
2022-09-23T13:37:58.590Z,0.20
2022-09-23T13:40:25.382Z,0.10
2022-09-23T13:42:58.543Z,0.10
2022-09-23T13:45:25.927Z,0.10
2022-09-23T13:47:54.066Z,0.10
2022-09-23T13:50:22.603Z,0.10
2022-09-23T13:52:53.963Z,0.00
2022-09-23T13:55:24.651Z,0.20
2022-09-23T13:57:57.306Z,0.10
2022-09-23T14:00:25.293Z,0.20
2022-09-23T14:02:53.046Z,0.10
2022-09-23T14:05:23.787Z,0.20
2022-09-23T14:07:54.742Z,0.30
2022-09-23T14:10:22.204Z,0.15
2022-09-23T14:12:49.860Z,0.20
2022-09-23T14:15:17.499Z,0.30
2022-09-23T14:17:48.158Z,0.40
2022-09-23T14:20:15.540Z,0.30
2022-09-23T14:22:41.853Z,0.40
2022-09-23T14:25:17.624Z,0.32
2022-09-23T14:27:44.910Z,0.20
2022-09-23T14:30:15.133Z,0.10
2022-09-23T14:32:41.833Z,0.35
2022-09-23T14:35:22.023Z,0.30
2022-09-23T14:38:09.028Z,0.20
2022-09-23T14:40:37.777Z,0.10
2022-09-23T14:43:04.344Z,0.15
2022-09-23T14:45:33.302Z,0.13
2022-09-23T14:48:00.822Z,0.20
2022-09-23T14:50:47.144Z,0.20
2022-09-23T14:53:22.730Z,0.20
2022-09-23T14:55:53.913Z,0.20
2022-09-23T14:58:22.486Z,0.10
2022-09-23T15:00:51.475Z,0.10
2022-09-23T15:03:21.127Z,0.00
2022-09-23T15:05:48.981Z,0.00
2022-09-23T15:08:20.012Z,0.10
2022-09-23T15:10:46.545Z,0.10
2022-09-23T15:13:15.345Z,0.10
2022-09-23T15:15:42.280Z,0.10
2022-09-23T15:18:22.900Z,0.00
2022-09-23T15:21:08.846Z,0.10
2022-09-23T15:23:37.014Z,0.05
2022-09-23T15:26:09.645Z,0.08
2022-09-23T15:28:35.959Z,0.10
2022-09-23T15:31:03.096Z,0.13
2022-09-23T15:33:29.863Z,0.10
2022-09-23T15:35:56.263Z,0.00
2022-09-23T15:38:22.780Z,0.10
2022-09-23T15:40:49.402Z,0.00
2022-09-23T15:43:20.582Z,0.10
2022-09-23T15:45:48.639Z,0.00
2022-09-23T15:48:16.110Z,0.00
2022-09-23T15:50:42.920Z,0.00
2022-09-23T15:53:18.284Z,0.00
2022-09-23T15:55:45.288Z,0.00
2022-09-23T15:58:11.657Z,0.00
2022-09-23T16:00:38.262Z,0.00
2022-09-23T16:03:05.173Z,0.00
2022-09-23T16:05:36.731Z,0.00
2022-09-23T16:10:35.995Z,0.20
2022-09-23T16:13:03.354Z,0.20
2022-09-23T16:15:30.787Z,0.65
2022-09-23T16:17:57.297Z,0.77
2022-09-23T16:20:24.147Z,0.55
2022-09-23T16:22:56.789Z,0.50
2022-09-23T16:25:25.377Z,0.30
2022-09-23T16:27:55.299Z,0.30
2022-09-23T16:30:22.464Z,0.20
2022-09-23T16:32:48.803Z,0.22
2022-09-23T16:35:16.586Z,0.10
2022-09-23T16:37:46.880Z,0.20
2022-09-23T16:40:19.789Z,0.10
2022-09-23T16:42:47.149Z,0.10
2022-09-23T16:45:16.846Z,0.20
2022-09-23T16:47:46.675Z,0.30
2022-09-23T16:50:14.168Z,0.40
2022-09-23T16:52:41.644Z,0.32
2022-09-23T16:55:08.731Z,0.20
2022-09-23T16:57:36.993Z,0.22
2022-09-23T17:00:23.468Z,0.38
2022-09-23T17:03:08.692Z,0.20
2022-09-23T17:05:35.046Z,0.20
2022-09-23T17:08:01.710Z,0.10
2022-09-23T17:10:28.105Z,0.20
2022-09-23T17:12:54.735Z,0.10
2022-09-23T17:15:21.985Z,0.10
2022-09-23T17:17:48.576Z,0.20
2022-09-23T17:20:14.910Z,0.45
2022-09-23T17:22:41.812Z,1.33
2022-09-23T17:25:08.818Z,1.58
2022-09-23T17:27:35.256Z,1.20
2022-09-23T17:30:01.642Z,0.90
2022-09-23T17:32:27.900Z,0.80
2022-09-23T17:34:54.312Z,0.63
2022-09-23T17:37:20.671Z,0.50
2022-09-23T17:39:46.986Z,0.40
2022-09-23T17:42:14.702Z,0.30
2022-09-23T17:44:41.002Z,0.30
2022-09-23T17:47:07.293Z,0.90
2022-09-23T17:49:35.369Z,0.60
2022-09-23T17:52:05.665Z,0.30
2022-09-23T17:54:32.588Z,0.30
2022-09-23T17:56:59.819Z,0.20
2022-09-23T17:59:26.597Z,0.30
2022-09-23T18:01:53.548Z,0.35
2022-09-23T18:04:19.939Z,0.40
2022-09-23T18:06:47.306Z,0.35
2022-09-23T18:09:13.948Z,0.40
2022-09-23T18:11:42.371Z,0.40
2022-09-23T18:14:22.012Z,0.40
2022-09-23T18:16:49.978Z,0.38
2022-09-23T18:19:17.754Z,0.20
2022-09-23T18:21:45.674Z,0.20
2022-09-23T18:26:59.794Z,0.20
2022-09-23T18:29:26.449Z,0.30
2022-09-23T18:31:52.808Z,0.30
2022-09-23T18:34:20.227Z,1.38
2022-09-23T18:36:46.843Z,3.15
2022-09-23T18:39:13.249Z,3.25
2022-09-23T18:41:39.622Z,2.60
2022-09-23T18:44:06.099Z,1.90
2022-09-23T18:46:32.468Z,1.50
2022-09-23T18:49:18.024Z,1.15
2022-09-23T18:52:02.728Z,0.70
2022-09-23T18:54:29.198Z,0.50
2022-09-23T18:56:55.554Z,0.40
2022-09-23T18:59:24.796Z,0.43
2022-09-23T19:01:51.425Z,0.40
2022-09-23T19:04:19.068Z,0.60
2022-09-23T19:06:45.581Z,0.50
2022-09-23T19:09:12.328Z,0.70
2022-09-23T19:11:38.776Z,1.00
2022-09-23T19:14:06.452Z,0.90
2022-09-23T19:16:33.194Z,0.80
2022-09-23T19:18:59.911Z,0.80
2022-09-23T19:21:27.026Z,0.68
2022-09-23T19:23:54.773Z,0.40
2022-09-23T19:26:22.438Z,0.40
2022-09-23T19:28:52.778Z,0.30
2022-09-23T19:31:24.339Z,0.20
2022-09-23T19:33:51.436Z,0.38
2022-09-23T19:36:22.500Z,0.30
2022-09-23T19:38:48.982Z,0.60
2022-09-23T19:41:15.352Z,0.50
2022-09-23T19:43:41.621Z,0.68
2022-09-23T19:46:08.635Z,0.80
2022-09-23T19:48:34.954Z,0.60
2022-09-23T19:51:02.603Z,0.50
2022-09-23T19:53:29.042Z,0.40
2022-09-23T19:55:56.039Z,0.45
2022-09-23T19:58:23.066Z,0.40
2022-09-23T20:00:49.530Z,0.30
2022-09-23T20:03:17.601Z,0.28
2022-09-23T20:05:44.027Z,0.30
2022-09-23T20:08:10.337Z,0.22
2022-09-23T20:10:38.214Z,0.40
2022-09-23T20:13:04.496Z,0.30
2022-09-23T20:15:30.939Z,0.25
2022-09-23T20:17:57.310Z,0.70
2022-09-23T20:20:23.594Z,0.60
2022-09-23T20:22:52.133Z,0.40
2022-09-23T20:25:18.556Z,0.30
2022-09-23T20:27:47.977Z,0.50
2022-09-23T20:30:14.411Z,0.80
2022-09-23T20:32:44.664Z,0.80
2022-09-23T20:35:11.365Z,0.80
2022-09-23T20:37:37.696Z,0.77
2022-09-23T20:40:04.180Z,0.70
2022-09-23T20:42:30.464Z,0.50
2022-09-23T20:44:57.049Z,0.50
2022-09-23T20:47:24.061Z,0.85
2022-09-23T20:49:50.668Z,0.60
2022-09-23T20:52:17.722Z,0.60
2022-09-23T20:54:44.000Z,0.50
2022-09-23T20:57:11.781Z,0.45
2022-09-23T20:59:39.121Z,0.50
2022-09-23T21:02:05.818Z,0.70
2022-09-23T21:04:32.196Z,0.68
2022-09-23T21:06:58.548Z,0.90
2022-09-23T21:09:27.003Z,1.50
2022-09-23T21:11:53.828Z,1.10
2022-09-23T21:14:22.138Z,1.35
2022-09-23T21:16:50.362Z,0.90
2022-09-23T21:19:17.217Z,1.20
2022-09-23T21:21:43.733Z,1.88
2022-09-23T21:24:40.058Z,1.27
2022-09-23T21:26:56.504Z,0.80
2022-09-23T21:29:22.807Z,0.50
2022-09-23T21:31:49.483Z,0.63
2022-09-23T21:34:16.109Z,0.40
2022-09-23T21:36:47.817Z,0.40
2022-09-23T21:39:14.491Z,0.55
2022-09-23T21:41:40.886Z,0.32
2022-09-23T21:44:08.283Z,0.30
2022-09-23T21:46:35.388Z,0.30
2022-09-23T21:49:03.965Z,0.60
2022-09-23T21:51:36.327Z,0.65
2022-09-23T21:54:02.607Z,1.05
2022-09-23T21:56:30.140Z,1.10
2022-09-23T21:58:57.137Z,1.13
2022-09-23T22:01:30.454Z,0.90
2022-09-23T22:03:58.242Z,0.52
2022-09-23T22:06:26.908Z,0.30
2022-09-23T22:08:54.484Z,0.40
2022-09-23T22:11:40.515Z,0.30
2022-09-23T22:14:07.928Z,0.22
2022-09-23T22:16:34.761Z,0.30
2022-09-23T22:19:01.243Z,0.50
2022-09-23T22:21:28.884Z,0.45
2022-09-23T22:23:57.030Z,0.40
2022-09-23T22:26:23.987Z,0.40
2022-09-23T22:29:09.373Z,0.30
2022-09-23T22:31:54.604Z,0.50
2022-09-23T22:34:47.871Z,0.50
2022-09-23T22:37:07.682Z,0.40
2022-09-23T22:39:33.999Z,0.30
2022-09-23T22:42:00.406Z,0.30
2022-09-23T22:44:26.793Z,0.20
2022-09-23T22:46:53.252Z,0.10
2022-09-23T22:49:19.796Z,0.20
2022-09-23T22:51:46.295Z,0.17
2022-09-23T22:54:12.815Z,0.30
2022-09-23T22:56:39.103Z,0.30
2022-09-23T22:59:06.873Z,0.22
2022-09-23T23:01:33.829Z,0.30
2022-09-23T23:04:01.335Z,0.20
2022-09-23T23:06:36.573Z,0.32
2022-09-23T23:09:10.905Z,0.30
2022-09-23T23:11:40.718Z,0.30
2022-09-23T23:14:07.093Z,0.40
2022-09-23T23:16:35.574Z,0.30
2022-09-23T23:19:06.675Z,0.20
2022-09-23T23:21:33.453Z,0.40
2022-09-23T23:24:00.226Z,0.22
2022-09-23T23:26:28.541Z,0.30
2022-09-23T23:28:55.173Z,0.30
2022-09-23T23:31:22.776Z,0.20
2022-09-23T23:33:49.381Z,0.20
2022-09-23T23:36:16.978Z,0.20
2022-09-23T23:38:44.157Z,0.28
2022-09-23T23:41:15.624Z,0.20
2022-09-23T23:43:42.914Z,0.17
2022-09-23T23:46:09.946Z,0.20
2022-09-23T23:48:37.183Z,0.30
2022-09-23T23:51:05.718Z,0.20
2022-09-23T23:53:33.731Z,0.20
2022-09-23T23:56:04.268Z,0.20
2022-09-23T23:58:30.623Z,0.30
